createdAt,value
2019-02-23T00:01:24.270Z,9.47
2019-02-23T00:03:52.708Z,10.10
2019-02-23T00:06:29.266Z,10.10
2019-02-23T00:08:51.241Z,9.97
2019-02-23T00:11:19.619Z,10.20
2019-02-23T00:13:47.967Z,10.57
2019-02-23T00:16:16.313Z,10.73
2019-02-23T00:18:44.970Z,9.67
2019-02-23T00:21:13.301Z,10.40
2019-02-23T00:23:41.650Z,9.70
2019-02-23T00:26:10.048Z,10.70
2019-02-23T00:28:38.379Z,9.70
2019-02-23T00:31:06.822Z,9.73
2019-02-23T00:33:35.156Z,10.67
2019-02-23T00:36:03.766Z,10.43
2019-02-23T00:38:32.180Z,10.40
2019-02-23T00:41:00.602Z,9.43
2019-02-23T00:43:28.920Z,9.70
2019-02-23T00:45:57.253Z,9.93
2019-02-23T00:48:25.732Z,9.30
2019-02-23T00:50:54.152Z,9.73
2019-02-23T00:53:22.567Z,9.47
2019-02-23T00:55:50.895Z,10.10
2019-02-23T00:58:19.225Z,9.20
2019-02-23T01:00:47.560Z,9.80
2019-02-23T01:03:15.879Z,8.80
2019-02-23T01:05:44.334Z,12.37
2019-02-23T01:08:12.715Z,10.70
2019-02-23T01:10:42.115Z,9.77
2019-02-23T01:13:10.502Z,10.97
2019-02-23T01:15:39.018Z,9.67
2019-02-23T01:18:07.698Z,10.07
2019-02-23T01:20:36.384Z,10.40
2019-02-23T01:23:05.228Z,11.20
2019-02-23T01:25:33.635Z,10.13
2019-02-23T01:28:02.039Z,10.80
2019-02-23T01:30:30.442Z,10.03
2019-02-23T01:32:58.770Z,10.03
2019-02-23T01:35:27.094Z,9.50
2019-02-23T01:37:55.432Z,9.60
2019-02-23T01:40:23.758Z,10.80
2019-02-23T01:42:52.154Z,9.50
2019-02-23T01:45:20.570Z,11.20
2019-02-23T01:47:48.983Z,10.43
2019-02-23T01:50:17.384Z,11.00
2019-02-23T01:52:45.792Z,10.90
2019-02-23T01:55:14.191Z,10.10
2019-02-23T01:57:44.389Z,10.53
2019-02-23T02:00:14.055Z,9.37
2019-02-23T02:02:42.759Z,30.83
2019-02-23T02:05:11.749Z,11.60
2019-02-23T02:07:40.163Z,10.80
2019-02-23T02:10:09.455Z,12.50
2019-02-23T02:12:38.019Z,11.83
2019-02-23T02:15:07.655Z,10.37
2019-02-23T02:17:36.392Z,9.67
2019-02-23T02:20:11.076Z,10.43
2019-02-23T02:22:35.047Z,11.17
2019-02-23T02:25:03.444Z,11.17
2019-02-23T02:27:32.166Z,11.73
2019-02-23T02:30:01.658Z,11.00
2019-02-23T02:32:31.122Z,11.97
2019-02-23T02:34:59.538Z,11.00
2019-02-23T02:37:29.029Z,10.00
2019-02-23T02:39:57.349Z,10.10
2019-02-23T02:42:27.551Z,11.00
2019-02-23T02:44:55.957Z,10.60
2019-02-23T02:47:24.289Z,11.00
2019-02-23T02:49:52.622Z,12.53
2019-02-23T02:52:21.053Z,14.50
2019-02-23T02:54:49.441Z,11.03
2019-02-23T02:57:17.780Z,11.40
2019-02-23T02:59:46.543Z,11.17
2019-02-23T03:02:14.934Z,10.87
2019-02-23T03:04:43.652Z,11.50
2019-02-23T03:07:12.067Z,11.60
2019-02-23T03:09:40.401Z,10.37
2019-02-23T03:12:08.855Z,10.40
2019-02-23T03:14:37.195Z,11.87
2019-02-23T03:17:05.519Z,11.63
2019-02-23T03:19:33.907Z,11.43
2019-02-23T03:22:02.320Z,10.43
2019-02-23T03:24:30.647Z,10.80
2019-02-23T03:26:58.988Z,10.83
2019-02-23T03:29:27.419Z,11.47
2019-02-23T03:31:55.811Z,10.77
2019-02-23T03:34:24.126Z,11.73
2019-02-23T03:36:52.883Z,10.97
2019-02-23T03:39:21.288Z,11.10
2019-02-23T03:41:49.598Z,11.53
2019-02-23T03:44:17.943Z,11.03
2019-02-23T03:46:46.330Z,11.10
2019-02-23T03:49:14.661Z,10.77
2019-02-23T03:51:43.062Z,11.50
2019-02-23T03:54:11.409Z,11.20
2019-02-23T03:56:39.814Z,11.03
2019-02-23T03:59:08.214Z,10.53
2019-02-23T04:01:36.611Z,11.63
2019-02-23T04:04:04.925Z,10.60
2019-02-23T04:06:33.639Z,11.53
2019-02-23T04:09:02.926Z,10.50
2019-02-23T04:11:33.296Z,11.97
2019-02-23T04:14:01.627Z,11.60
2019-02-23T04:16:30.023Z,12.53
2019-02-23T04:18:58.447Z,11.80
2019-02-23T04:21:26.868Z,11.07
2019-02-23T04:23:55.519Z,11.30
2019-02-23T04:26:24.247Z,10.87
2019-02-23T04:28:52.650Z,12.03
2019-02-23T04:31:21.053Z,12.10
2019-02-23T04:33:49.467Z,10.83
2019-02-23T04:36:17.949Z,13.07
2019-02-23T04:38:46.335Z,10.57
2019-02-23T04:41:14.686Z,12.70
2019-02-23T04:43:44.219Z,12.40
2019-02-23T04:46:12.718Z,10.90
2019-02-23T04:48:41.050Z,11.20
2019-02-23T04:51:14.495Z,12.10
2019-02-23T04:53:39.482Z,10.90
2019-02-23T04:56:07.898Z,12.70
2019-02-23T04:58:36.231Z,10.40
2019-02-23T05:01:04.637Z,12.40
2019-02-23T05:03:32.987Z,12.30
2019-02-23T05:06:01.617Z,12.83
2019-02-23T05:08:29.943Z,13.67
2019-02-23T05:10:58.384Z,13.23
2019-02-23T05:13:26.678Z,14.07
2019-02-23T05:15:55.040Z,12.93
2019-02-23T05:18:23.711Z,13.33
2019-02-23T05:20:52.121Z,12.67
2019-02-23T05:23:20.433Z,13.63
2019-02-23T05:25:48.853Z,11.83
2019-02-23T05:28:17.171Z,13.40
2019-02-23T05:30:45.571Z,13.30
2019-02-23T05:33:13.899Z,12.67
2019-02-23T05:35:42.219Z,12.57
2019-02-23T05:38:10.539Z,11.90
2019-02-23T05:40:38.899Z,12.73
2019-02-23T05:43:07.299Z,12.60
2019-02-23T05:45:35.628Z,11.57
2019-02-23T05:48:04.044Z,12.60
2019-02-23T05:50:32.366Z,14.57
2019-02-23T05:53:00.686Z,11.93
2019-02-23T05:55:29.116Z,11.80
2019-02-23T05:57:57.463Z,12.17
2019-02-23T06:00:25.866Z,12.53
2019-02-23T06:02:54.284Z,12.67
2019-02-23T06:05:22.602Z,12.97
2019-02-23T06:07:51.013Z,11.27
2019-02-23T06:10:19.430Z,12.47
2019-02-23T06:12:48.919Z,13.63
2019-02-23T06:15:17.320Z,11.80
2019-02-23T06:17:45.693Z,13.57
2019-02-23T06:20:14.015Z,12.80
2019-02-23T06:22:42.418Z,12.43
2019-02-23T06:25:10.773Z,13.43
2019-02-23T06:27:39.219Z,12.83
2019-02-23T06:30:08.607Z,14.37
2019-02-23T06:32:37.015Z,13.37
2019-02-23T06:35:05.807Z,13.20
2019-02-23T06:37:34.131Z,13.13
2019-02-23T06:40:02.938Z,14.93
2019-02-23T06:42:31.244Z,12.40
2019-02-23T06:44:59.573Z,12.67
2019-02-23T06:47:27.921Z,13.70
2019-02-23T06:49:56.302Z,14.30
2019-02-23T06:52:24.714Z,13.47
2019-02-23T06:54:53.046Z,13.33
2019-02-23T06:57:21.936Z,12.27
2019-02-23T06:59:50.697Z,13.30
2019-02-23T07:02:19.428Z,11.60
2019-02-23T07:04:47.825Z,15.70
2019-02-23T07:07:16.149Z,13.40
2019-02-23T07:09:44.551Z,11.33
2019-02-23T07:12:12.876Z,11.30
2019-02-23T07:14:41.195Z,10.60
2019-02-23T07:17:09.853Z,10.73
2019-02-23T07:19:38.165Z,11.00
2019-02-23T07:22:15.097Z,10.27
2019-02-23T07:24:36.858Z,9.80
2019-02-23T07:27:05.251Z,9.93
2019-02-23T07:29:34.639Z,10.90
2019-02-23T07:32:02.986Z,10.17
2019-02-23T07:34:31.307Z,11.00
2019-02-23T07:36:59.750Z,9.67
2019-02-23T07:39:28.086Z,8.60
2019-02-23T07:41:56.493Z,8.10
2019-02-23T07:44:24.899Z,9.20
2019-02-23T07:46:54.003Z,9.00
2019-02-23T07:49:22.314Z,9.03
2019-02-23T07:51:50.627Z,7.80
2019-02-23T07:54:18.963Z,9.17
2019-02-23T07:56:47.360Z,7.77
2019-02-23T07:59:15.756Z,7.37
2019-02-23T08:01:44.177Z,8.50
2019-02-23T08:04:12.486Z,7.50
2019-02-23T08:06:40.810Z,7.67
2019-02-23T08:09:10.700Z,7.87
2019-02-23T08:11:39.306Z,8.57
2019-02-23T08:14:07.704Z,7.50
2019-02-23T08:16:36.115Z,8.03
2019-02-23T08:19:04.444Z,7.17
2019-02-23T08:21:32.910Z,6.73
2019-02-23T08:24:01.256Z,7.30
2019-02-23T08:26:29.713Z,7.20
2019-02-23T08:28:58.779Z,8.20
2019-02-23T08:31:27.110Z,7.97
2019-02-23T08:33:55.737Z,7.90
2019-02-23T08:36:24.416Z,7.80
2019-02-23T08:38:52.835Z,7.27
2019-02-23T08:41:21.222Z,7.10
2019-02-23T08:43:49.551Z,6.07
2019-02-23T08:46:17.891Z,8.47
2019-02-23T08:48:46.247Z,9.80
2019-02-23T08:51:14.651Z,11.03
2019-02-23T08:53:43.195Z,17.77
2019-02-23T08:56:11.543Z,13.90
2019-02-23T08:58:39.870Z,12.07
2019-02-23T09:01:08.308Z,11.57
2019-02-23T09:03:36.712Z,11.00
2019-02-23T09:06:05.104Z,7.70
2019-02-23T09:08:34.382Z,7.77
2019-02-23T09:11:02.781Z,6.60
2019-02-23T09:13:31.176Z,6.00
2019-02-23T09:15:59.511Z,7.20
2019-02-23T09:18:27.819Z,7.87
2019-02-23T09:20:56.566Z,7.40
2019-02-23T09:23:25.136Z,6.50
2019-02-23T09:25:53.456Z,8.60
2019-02-23T09:28:21.775Z,7.07
2019-02-23T09:30:50.180Z,7.43
2019-02-23T09:33:18.576Z,6.03
2019-02-23T09:35:46.974Z,8.13
2019-02-23T09:38:15.395Z,9.53
2019-02-23T09:40:43.989Z,7.47
2019-02-23T09:43:12.387Z,7.63
2019-02-23T09:45:40.729Z,7.13
2019-02-23T09:48:09.127Z,6.00
2019-02-23T09:50:37.542Z,5.73
2019-02-23T09:53:11.314Z,7.73
2019-02-23T09:55:36.131Z,6.50
2019-02-23T09:58:04.545Z,5.70
2019-02-23T10:00:32.948Z,6.17
2019-02-23T10:03:01.281Z,6.97
2019-02-23T10:05:29.598Z,4.87
2019-02-23T10:07:57.942Z,3.53
2019-02-23T10:10:26.334Z,4.90
2019-02-23T10:12:54.650Z,5.80
2019-02-23T10:15:23.363Z,5.23
2019-02-23T10:17:51.771Z,4.90
2019-02-23T10:20:20.093Z,6.20
2019-02-23T10:22:48.506Z,7.33
2019-02-23T10:25:17.288Z,6.80
2019-02-23T10:27:45.682Z,5.50
2019-02-23T10:30:14.088Z,5.43
2019-02-23T10:32:42.498Z,5.57
2019-02-23T10:35:10.896Z,8.60
2019-02-23T10:37:39.240Z,5.80
2019-02-23T10:40:08.174Z,5.30
2019-02-23T10:42:36.508Z,4.10
